Time;durP1;ratioP1;P1;durP2;ratioP2;P2;SDS_P1;SDS_P2;PMS_P1;PMS_P2;Temp;Humidity;BMP_temperature;BMP_pressure;BME280_temperature;BME280_humidity;BME280_pressure;Samples;Min_cycle;Max_cycle;Signal;HPM_P1;HPM_P2
2021/12/11 00:01:18;;;;;;;4.75;1.33;;;20.50;96.70;;;;;;5016619;28;20033;-70
2021/12/11 00:03:59;;;;;;;8.85;1.88;;;20.50;96.80;;;;;;5015879;28;20071;-79
2021/12/11 00:06:38;;;;;;;8.80;1.55;;;20.60;96.50;;;;;;5019482;28;20057;-71
2021/12/11 00:09:49;;;;;;;6.55;1.70;;;20.80;95.70;;;;;;5020591;28;20021;-80
2021/12/11 00:12:33;;;;;;;7.82;1.67;;;21.10;95.10;;;;;;4979387;28;20030;-73
2021/12/11 00:15:17;;;;;;;8.90;1.30;;;21.20;94.60;;;;;;5018810;28;20033;-85
2021/12/11 00:17:45;;;;;;;7.30;1.10;;;21.30;94.90;;;;;;5018901;28;20347;-81
2021/12/11 00:20:31;;;;;;;6.15;1.30;;;21.40;94.70;;;;;;5020661;28;20265;-82
2021/12/11 00:22:59;;;;;;;5.63;0.85;;;21.40;94.50;;;;;;5018258;28;20474;-81
2021/12/11 00:25:27;;;;;;;7.70;1.38;;;21.30;94.00;;;;;;5020757;28;20450;-83
2021/12/11 00:28:05;;;;;;;7.20;1.33;;;21.20;94.20;;;;;;5019384;28;20382;-71
2021/12/11 00:30:37;;;;;;;4.80;1.10;;;21.30;94.00;;;;;;5019881;28;21171;-78
2021/12/11 00:33:26;;;;;;;6.13;0.90;;;21.30;93.70;;;;;;5019884;28;20021;-72
2021/12/11 00:35:56;;;;;;;6.45;1.13;;;21.40;93.70;;;;;;5018660;28;20049;-85
2021/12/11 00:38:33;;;;;;;4.72;1.15;;;21.60;93.80;;;;;;5002201;28;20069;-68
2021/12/11 00:41:04;;;;;;;5.57;1.98;;;21.80;93.30;;;;;;5018124;28;20682;-78
2021/12/11 00:43:35;;;;;;;6.95;1.90;;;21.90;92.50;;;;;;5018145;28;20433;-69
2021/12/11 00:46:05;;;;;;;5.15;1.50;;;22.00;92.30;;;;;;5019959;28;20025;-86
2021/12/11 00:48:34;;;;;;;9.40;2.15;;;22.00;92.30;;;;;;5002119;28;20025;-88
2021/12/11 00:51:11;;;;;;;6.18;1.30;;;22.10;92.40;;;;;;5019449;28;20096;-70
2021/12/11 00:53:49;;;;;;;7.78;1.33;;;22.30;92.40;;;;;;5020398;28;20017;-75
2021/12/11 00:56:29;;;;;;;6.15;1.38;;;22.30;92.60;;;;;;5020150;28;20033;-83
2021/12/11 00:59:01;;;;;;;6.40;1.83;;;22.20;92.60;;;;;;5019269;28;20093;-69
2021/12/11 01:01:35;;;;;;;6.35;2.08;;;22.20;92.60;;;;;;5020783;28;20022;-75
2021/12/11 01:04:13;;;;;;;5.63;1.17;;;22.20;93.00;;;;;;5019306;28;20422;-69
2021/12/11 01:07:03;;;;;;;3.33;1.30;;;22.20;91.10;;;;;;5020800;28;20014;-84
2021/12/11 01:09:47;;;;;;;3.70;1.15;;;22.40;91.00;;;;;;5020312;28;20374;-80
2021/12/11 01:12:36;;;;;;;6.15;1.00;;;22.60;90.80;;;;;;5020604;28;20386;-71
2021/12/11 01:15:25;;;;;;;5.50;1.00;;;22.60;89.60;;;;;;5020042;28;20057;-80
2021/12/11 01:18:11;;;;;;;6.05;1.60;;;22.70;90.50;;;;;;5018592;28;20475;-82
2021/12/11 01:20:53;;;;;;;5.88;1.83;;;22.80;90.10;;;;;;5019774;28;20026;-84
2021/12/11 01:23:46;;;;;;;;;;;22.70;90.40;;;;;;5022078;28;20108;-84
2021/12/11 01:26:22;;;;;;;8.13;2.42;;;22.40;90.90;;;;;;5022139;28;20389;-88
2021/12/11 01:28:51;;;;;;;3.63;1.60;;;22.20;90.60;;;;;;5021584;28;20021;-70
2021/12/11 01:31:23;;;;;;;5.50;1.38;;;22.00;90.80;;;;;;5022749;28;20071;-84
2021/12/11 01:33:54;;;;;;;7.90;1.13;;;21.80;90.20;;;;;;5023039;28;20017;-79
2021/12/11 01:36:22;;;;;;;6.75;1.42;;;22.00;90.40;;;;;;5022927;28;20021;-71
2021/12/11 01:38:59;;;;;;;3.97;1.42;;;22.30;90.30;;;;;;5018983;28;20013;-81
2021/12/11 01:41:27;;;;;;;3.83;1.15;;;22.40;89.60;;;;;;5018485;28;20363;-82
2021/12/11 01:44:00;;;;;;;6.03;1.77;;;22.80;90.80;;;;;;5016661;28;20035;-77
2021/12/11 01:46:26;;;;;;;;;;;23.10;90.70;;;;;;5018826;28;20089;-82
2021/12/11 01:49:01;;;;;;;4.68;1.70;;;23.20;90.00;;;;;;5017930;28;19904;-81
2021/12/11 01:51:40;;;;;;;5.10;1.20;;;23.30;87.70;;;;;;5018777;28;20039;-81
2021/12/11 01:54:25;;;;;;;5.25;1.23;;;23.30;87.80;;;;;;5017413;28;20071;-83
2021/12/11 01:57:03;;;;;;;4.85;1.00;;;23.30;89.40;;;;;;5018808;28;20025;-76
2021/12/11 01:59:38;;;;;;;4.90;1.02;;;23.30;88.50;;;;;;5018564;28;20850;-81
2021/12/11 02:02:05;;;;;;;4.50;1.10;;;23.30;86.10;;;;;;5016205;28;20743;-68
2021/12/11 02:04:38;;;;;;;4.72;2.00;;;23.20;86.70;;;;;;5018528;28;20049;-83
2021/12/11 02:07:22;;;;;;;7.53;1.83;;;23.20;86.30;;;;;;5016435;28;20151;-73
2021/12/11 02:10:00;;;;;;;5.80;1.00;;;23.30;86.30;;;;;;5018558;28;20489;-85
2021/12/11 02:12:37;;;;;;;4.63;1.60;;;23.30;86.10;;;;;;5019541;28;20379;-77
2021/12/11 02:15:18;;;;;;;5.55;1.30;;;23.20;84.30;;;;;;5016215;28;20025;-84
2021/12/11 02:17:58;;;;;;;3.78;1.35;;;23.10;84.80;;;;;;5017811;28;20029;-71
2021/12/11 02:20:35;;;;;;;3.15;1.08;;;23.50;84.70;;;;;;5018301;28;20474;-86
2021/12/11 02:23:04;;;;;;;2.97;1.05;;;23.60;83.80;;;;;;5015535;28;20432;-79
2021/12/11 02:25:40;;;;;;;8.60;1.95;;;23.80;82.30;;;;;;5018388;28;20018;-71
2021/12/11 02:28:30;;;;;;;4.60;1.50;;;24.00;81.30;;;;;;5016076;28;20145;-84
2021/12/11 02:31:29;;;;;;;4.95;1.45;;;24.20;80.30;;;;;;5018941;28;20045;-71
2021/12/11 02:34:23;;;;;;;5.22;1.73;;;24.30;80.10;;;;;;5019195;28;20053;-71
2021/12/11 02:37:38;;;;;;;6.03;1.27;;;24.30;78.30;;;;;;5020120;28;20032;-82
2021/12/11 02:40:34;;;;;;;4.97;1.45;;;24.30;79.10;;;;;;5008497;28;20045;-71
2021/12/11 02:43:23;;;;;;;6.00;2.35;;;24.50;79.70;;;;;;5017302;28;20033;-77
2021/12/11 02:46:00;;;;;;;6.05;1.30;;;24.60;81.50;;;;;;5019938;28;20052;-72
2021/12/11 02:48:39;;;;;;;6.13;1.75;;;24.70;80.60;;;;;;5027454;28;20038;-71
2021/12/11 02:51:26;;;;;;;5.32;1.60;;;24.70;80.40;;;;;;5026030;28;20052;-71
2021/12/11 02:54:02;;;;;;;4.40;0.93;;;24.90;81.70;;;;;;5025478;28;20304;-72
2021/12/11 02:56:39;;;;;;;8.50;1.55;;;25.30;82.60;;;;;;5027335;28;20033;-77
2021/12/11 02:59:13;;;;;;;5.38;1.15;;;25.40;80.60;;;;;;5016817;28;20032;-80
2021/12/11 03:01:49;;;;;;;6.05;1.90;;;25.70;81.90;;;;;;5018287;28;20455;-77
2021/12/11 03:04:35;;;;;;;5.70;2.00;;;26.00;79.90;;;;;;5016585;28;20108;-75
2021/12/11 03:07:06;;;;;;;6.75;1.65;;;26.20;79.50;;;;;;5018215;28;20025;-84
2021/12/11 03:09:36;;;;;;;6.78;1.23;;;26.40;78.30;;;;;;5018070;28;20022;-79
2021/12/11 03:12:08;;;;;;;4.88;1.83;;;26.40;78.70;;;;;;5017485;28;20025;-77
2021/12/11 03:14:37;;;;;;;4.40;1.48;;;26.80;80.10;;;;;;5018637;28;20021;-70
2021/12/11 03:17:05;;;;;;;3.63;1.10;;;27.30;77.00;;;;;;5016663;28;20033;-70
2021/12/11 03:19:37;;;;;;;4.93;1.50;;;27.70;74.10;;;;;;5017863;28;20018;-69
2021/12/11 03:22:08;;;;;;;2.78;0.70;;;27.80;71.50;;;;;;5017368;28;20026;-73
2021/12/11 03:24:36;;;;;;;3.08;0.70;;;28.10;69.60;;;;;;5019152;28;20026;-70
2021/12/11 03:27:04;;;;;;;4.63;1.00;;;28.20;69.40;;;;;;5018324;28;20048;-71
2021/12/11 03:29:32;;;;;;;3.65;0.70;;;27.60;69.90;;;;;;4998952;28;20500;-81
2021/12/11 03:32:00;;;;;;;4.97;0.80;;;26.70;71.10;;;;;;5017385;28;20135;-86
2021/12/11 03:34:29;;;;;;;5.10;1.48;;;26.30;73.80;;;;;;5015265;28;20017;-82
2021/12/11 03:37:00;;;;;;;3.58;0.60;;;26.80;72.50;;;;;;5017624;28;20545;-83
2021/12/11 03:39:37;;;;;;;4.70;1.02;;;27.30;71.80;;;;;;5016890;28;20067;-71
2021/12/11 03:42:12;;;;;;;4.43;1.55;;;27.90;71.40;;;;;;5021991;28;20028;-81
2021/12/11 03:44:41;;;;;;;5.80;1.10;;;28.40;70.60;;;;;;5021569;28;20013;-75
2021/12/11 03:47:12;;;;;;;4.65;0.98;;;29.00;68.20;;;;;;5021255;28;20512;-76
2021/12/11 03:49:41;;;;;;;6.15;1.92;;;29.20;67.40;;;;;;5020723;28;20045;-68
2021/12/11 03:52:10;;;;;;;6.90;2.63;;;29.20;67.70;;;;;;5022772;28;20033;-71
2021/12/11 03:54:40;;;;;;;6.03;1.60;;;29.30;67.40;;;;;;5021508;28;20097;-81
2021/12/11 03:57:10;;;;;;;4.32;1.20;;;29.00;67.10;;;;;;5021675;28;20045;-72
2021/12/11 03:59:37;;;;;;;5.57;1.17;;;28.70;66.90;;;;;;5019494;28;20162;-69
2021/12/11 04:02:11;;;;;;;6.85;0.98;;;28.40;67.60;;;;;;5020977;28;20509;-68
2021/12/11 04:04:47;;;;;;;8.07;1.30;;;28.00;68.20;;;;;;5020349;28;20029;-74
2021/12/11 04:07:24;;;;;;;7.25;1.38;;;27.80;67.70;;;;;;5020880;28;20029;-78
2021/12/11 04:09:54;;;;;;;5.78;2.08;;;27.90;68.30;;;;;;5020570;28;20034;-81
2021/12/11 04:12:23;;;;;;;4.18;0.80;;;28.20;67.50;;;;;;5018235;28;20045;-73
2021/12/11 04:14:54;;;;;;;3.05;0.80;;;28.50;66.20;;;;;;5019945;28;20036;-68
2021/12/11 04:17:24;;;;;;;4.05;0.90;;;28.60;64.50;;;;;;5018186;28;20026;-80
2021/12/11 04:19:55;;;;;;;4.47;1.10;;;28.70;62.80;;;;;;5020839;28;20021;-73
2021/12/11 04:22:23;;;;;;;2.07;0.63;;;29.10;62.60;;;;;;5018275;28;20043;-77
2021/12/11 04:24:51;;;;;;;7.10;2.00;;;29.20;61.10;;;;;;5020189;28;20083;-71
2021/12/11 04:27:20;;;;;;;5.38;1.08;;;29.30;61.80;;;;;;5019175;28;20754;-71
2021/12/11 04:29:50;;;;;;;2.72;0.77;;;29.60;60.80;;;;;;5021066;28;20040;-70
2021/12/11 04:32:20;;;;;;;4.85;0.95;;;29.50;60.10;;;;;;5019560;28;20113;-73
2021/12/11 04:34:48;;;;;;;5.38;0.75;;;29.40;60.40;;;;;;5020332;28;20454;-81
2021/12/11 04:37:25;;;;;;;2.55;0.90;;;29.30;60.20;;;;;;5020496;28;20110;-72
2021/12/11 04:40:00;;;;;;;4.28;1.35;;;29.30;60.50;;;;;;5019646;28;20105;-80
2021/12/11 04:45:27;;;;;;;6.28;1.48;;;29.60;59.80;;;;;;5020553;28;20114;-85
2021/12/11 04:48:12;;;;;;;2.83;0.70;;;29.50;59.50;;;;;;5019597;28;20021;-77
2021/12/11 04:51:29;;;;;;;1.58;0.70;;;29.40;60.10;;;;;;5016315;28;20152;-75
2021/12/11 04:57:07;;;;;;;4.45;0.60;;;29.30;61.10;;;;;;5021048;28;20075;-74
2021/12/11 05:02:51;;;;;;;2.03;0.65;;;29.00;61.00;;;;;;5020652;28;20022;-71
2021/12/11 05:10:28;;;;;;;5.20;0.68;;;28.70;62.00;;;;;;5019478;28;20040;-81
2021/12/11 05:12:58;;;;;;;3.17;0.70;;;28.90;61.10;;;;;;5019490;28;20423;-80
2021/12/11 05:15:29;;;;;;;5.32;1.73;;;28.60;62.50;;;;;;5019002;28;20018;-71
2021/12/11 05:17:57;;;;;;;8.35;1.52;;;28.60;62.70;;;;;;5019445;28;20056;-78
2021/12/11 05:20:34;;;;;;;7.93;3.17;;;28.00;64.50;;;;;;5018224;28;20075;-83
2021/12/11 05:23:02;;;;;;;6.57;2.78;;;28.30;63.60;;;;;;5003233;28;20033;-70
2021/12/11 05:25:30;;;;;;;8.52;1.90;;;28.60;63.00;;;;;;5017996;28;20021;-74
2021/12/11 05:27:58;;;;;;;4.95;1.40;;;28.80;63.80;;;;;;5019780;28;20026;-74
2021/12/11 05:30:31;;;;;;;6.43;1.60;;;28.80;63.40;;;;;;5019012;28;20021;-71
2021/12/11 05:32:59;;;;;;;3.75;0.98;;;28.60;61.50;;;;;;5019138;28;20026;-77
2021/12/11 05:35:29;;;;;;;7.68;1.75;;;28.60;62.70;;;;;;5018677;28;20040;-83
2021/12/11 05:37:58;;;;;;;7.03;1.27;;;28.20;63.50;;;;;;5019334;28;20101;-80
2021/12/11 05:40:27;;;;;;;5.88;1.40;;;28.30;65.00;;;;;;5019166;28;20029;-72
2021/12/11 05:42:55;;;;;;;10.85;1.88;;;28.20;64.30;;;;;;5018193;28;20025;-82
2021/12/11 05:45:23;;;;;;;5.45;1.27;;;27.60;65.30;;;;;;5018608;28;20052;-82
2021/12/11 05:47:54;;;;;;;3.63;1.55;;;27.10;66.40;;;;;;5017179;28;20051;-75
2021/12/11 05:50:27;;;;;;;4.93;0.77;;;26.90;66.10;;;;;;5018231;28;20525;-84
2021/12/11 05:52:55;;;;;;;6.18;0.70;;;26.60;65.80;;;;;;5018274;28;20036;-82
2021/12/11 05:55:27;;;;;;;3.38;0.77;;;26.00;67.80;;;;;;5017998;28;20064;-78
2021/12/11 05:57:57;;;;;;;7.72;1.50;;;25.90;69.10;;;;;;5017111;28;20022;-80
2021/12/11 06:00:36;;;;;;;7.63;1.70;;;25.60;70.20;;;;;;5017899;28;20025;-76
2021/12/11 06:03:05;;;;;;;3.97;1.10;;;25.50;70.20;;;;;;5017877;28;20021;-79
2021/12/11 06:05:32;;;;;;;7.28;1.73;;;25.20;69.80;;;;;;4999934;28;20124;-71
2021/12/11 06:08:00;;;;;;;5.10;1.15;;;25.30;70.60;;;;;;5017256;28;20018;-72
2021/12/11 06:10:28;;;;;;;4.05;1.23;;;25.20;70.30;;;;;;5018028;28;20620;-79
2021/12/11 06:12:58;;;;;;;5.15;1.25;;;25.20;70.20;;;;;;5015675;28;20030;-79
2021/12/11 06:15:26;;;;;;;5.97;1.90;;;25.30;70.80;;;;;;5017268;28;20025;-76
2021/12/11 06:17:54;;;;;;;5.10;1.50;;;25.30;71.10;;;;;;5015001;28;20569;-75
2021/12/11 06:20:42;;;;;;;4.07;1.08;;;25.30;71.40;;;;;;5017633;28;20022;-79
2021/12/11 06:23:09;;;;;;;5.10;0.98;;;25.30;69.50;;;;;;5016547;28;20033;-70
2021/12/11 06:25:37;;;;;;;5.65;1.10;;;25.20;70.00;;;;;;5017726;28;20028;-70
2021/12/11 06:28:06;;;;;;;8.02;1.05;;;25.10;70.40;;;;;;5017449;28;20108;-70
2021/12/11 06:30:35;;;;;;;5.38;1.23;;;24.80;71.90;;;;;;5017110;28;20061;-70
2021/12/11 06:33:07;;;;;;;4.53;1.58;;;24.70;72.80;;;;;;5017906;28;20045;-70
2021/12/11 06:35:42;;;;;;;7.47;2.30;;;24.60;73.70;;;;;;5017132;28;20017;-70
2021/12/11 06:38:12;;;;;;;7.95;2.00;;;24.60;74.70;;;;;;5017474;28;20104;-71
2021/12/11 06:40:40;;;;;;;6.00;1.92;;;24.70;74.60;;;;;;5016545;28;20052;-75
2021/12/11 06:43:08;;;;;;;6.63;2.88;;;24.80;75.20;;;;;;5017033;28;20026;-76
2021/12/11 06:45:37;;;;;;;8.02;1.60;;;24.80;74.80;;;;;;5017396;28;20018;-70
2021/12/11 06:48:05;;;;;;;7.45;1.85;;;24.70;74.40;;;;;;5016563;28;20040;-74
2021/12/11 06:50:32;;;;;;;7.57;1.67;;;24.60;74.40;;;;;;5015993;28;20237;-75
2021/12/11 06:53:07;;;;;;;6.18;1.85;;;24.50;74.10;;;;;;5015147;28;20026;-75
2021/12/11 06:55:35;;;;;;;5.65;1.83;;;24.20;74.60;;;;;;5017110;28;20800;-78
2021/12/11 06:58:03;;;;;;;4.18;1.60;;;24.10;75.50;;;;;;5015505;28;20739;-77
2021/12/11 07:00:30;;;;;;;8.73;1.65;;;24.00;75.60;;;;;;5015926;28;20034;-76
2021/12/11 07:02:58;;;;;;;6.82;2.60;;;23.90;76.00;;;;;;5015374;28;20029;-69
2021/12/11 07:05:26;;;;;;;9.40;2.70;;;23.80;76.70;;;;;;5016294;28;20053;-69
2021/12/11 07:07:53;;;;;;;7.57;1.92;;;23.80;77.50;;;;;;5015356;28;20022;-71
2021/12/11 07:10:22;;;;;;;7.07;1.98;;;23.70;77.50;;;;;;5016510;28;20095;-77
2021/12/11 07:12:50;;;;;;;7.15;1.83;;;23.70;76.50;;;;;;5015273;28;20029;-75
2021/12/11 07:15:19;;;;;;;6.13;1.88;;;23.60;77.30;;;;;;5019073;28;20458;-70
2021/12/11 07:17:46;;;;;;;10.10;2.63;;;23.70;77.60;;;;;;5020198;28;20037;-68
2021/12/11 07:20:16;;;;;;;7.00;2.20;;;23.70;78.10;;;;;;5020684;28;20029;-67
2021/12/11 07:22:44;;;;;;;6.55;2.92;;;23.60;78.30;;;;;;5020678;28;20359;-67
2021/12/11 07:25:18;;;;;;;12.50;2.05;;;23.30;79.30;;;;;;5020152;28;20104;-70
2021/12/11 07:27:50;;;;;;;6.78;3.05;;;23.00;80.30;;;;;;5019738;28;20067;-69
2021/12/11 07:30:18;;;;;;;9.52;1.92;;;22.80;82.30;;;;;;5020684;28;20112;-72
2021/12/11 07:32:46;;;;;;;7.38;2.00;;;22.50;82.70;;;;;;5020104;28;20548;-74
2021/12/11 07:35:13;;;;;;;8.75;2.55;;;22.30;84.00;;;;;;5021294;28;20017;-72
2021/12/11 07:37:47;;;;;;;10.35;2.05;;;22.20;84.80;;;;;;5019953;28;20147;-77
2021/12/11 07:40:14;;;;;;;8.98;3.13;;;22.10;85.50;;;;;;5021261;28;20036;-71
2021/12/11 07:42:42;;;;;;;9.98;3.35;;;22.00;86.30;;;;;;5019901;28;20032;-77
2021/12/11 07:45:09;;;;;;;7.20;2.15;;;21.90;86.40;;;;;;5019130;28;20029;-72
2021/12/11 07:47:37;;;;;;;9.35;2.95;;;21.90;87.10;;;;;;5019795;28;20025;-79
2021/12/11 07:50:06;;;;;;;7.93;3.10;;;22.00;86.80;;;;;;5018703;28;20100;-76
2021/12/11 07:52:33;;;;;;;8.18;2.75;;;21.80;86.00;;;;;;5019628;28;20052;-71
2021/12/11 07:55:00;;;;;;;8.60;2.65;;;21.80;85.90;;;;;;5019264;28;20021;-77
2021/12/11 07:57:28;;;;;;;7.45;1.80;;;21.70;86.30;;;;;;5020164;28;20026;-70
2021/12/11 07:59:56;;;;;;;11.43;3.28;;;21.70;86.80;;;;;;5018812;28;20022;-70
2021/12/11 08:02:23;;;;;;;9.40;3.65;;;21.60;87.60;;;;;;5020413;28;20014;-77
2021/12/11 08:04:51;;;;;;;9.82;3.58;;;21.50;87.90;;;;;;5019792;28;20018;-69
2021/12/11 08:07:18;;;;;;;13.25;4.00;;;21.30;88.80;;;;;;5019952;28;20425;-76
2021/12/11 08:09:48;;;;;;;11.90;2.80;;;21.20;90.00;;;;;;5019841;28;20025;-71
2021/12/11 08:12:15;;;;;;;9.23;3.33;;;21.00;90.40;;;;;;5018760;28;20048;-67
2021/12/11 08:14:44;;;;;;;7.95;3.30;;;20.90;90.50;;;;;;5018984;28;20017;-69
2021/12/11 08:17:11;;;;;;;12.32;2.28;;;20.90;91.00;;;;;;5018336;28;20037;-72
2021/12/11 08:19:39;;;;;;;8.00;1.67;;;20.80;91.30;;;;;;5019036;28;20386;-69
2021/12/11 08:22:08;;;;;;;15.55;3.30;;;20.80;91.60;;;;;;5018063;28;20108;-77
2021/12/11 08:24:37;;;;;;;7.05;3.00;;;20.80;91.90;;;;;;5019193;28;20017;-70
2021/12/11 08:27:12;;;;;;;11.95;2.63;;;20.80;92.20;;;;;;5016923;28;20026;-79
2021/12/11 08:29:41;;;;;;;9.15;4.00;;;20.70;91.90;;;;;;5018647;28;20021;-70
2021/12/11 08:32:09;;;;;;;8.38;3.35;;;20.70;92.10;;;;;;5017935;28;20032;-75
2021/12/11 08:34:37;;;;;;;10.48;2.85;;;20.60;91.80;;;;;;5019417;28;20030;-77
2021/12/11 08:37:06;;;;;;;4.88;1.98;;;20.50;91.80;;;;;;5018705;28;20025;-68
2021/12/11 08:39:34;;;;;;;9.85;2.72;;;20.40;92.00;;;;;;5017741;28;20021;-76
2021/12/11 08:42:04;;;;;;;8.00;2.67;;;20.30;92.50;;;;;;5018578;28;20482;-76
2021/12/11 08:44:36;;;;;;;10.55;2.75;;;20.10;93.00;;;;;;5018624;28;20784;-71
2021/12/11 08:47:07;;;;;;;9.27;1.65;;;20.10;93.40;;;;;;5017681;28;20025;-74
2021/12/11 08:49:37;;;;;;;9.43;2.77;;;20.00;93.60;;;;;;5018057;28;20037;-70
2021/12/11 08:52:13;;;;;;;14.35;4.00;;;20.00;94.00;;;;;;5017572;28;20030;-77
2021/12/11 08:54:41;;;;;;;11.45;2.40;;;20.00;94.50;;;;;;5018819;28;20056;-75
2021/12/11 08:57:11;;;;;;;10.65;2.83;;;20.00;94.90;;;;;;5017972;28;20331;-76
2021/12/11 08:59:43;;;;;;;9.63;2.13;;;19.90;95.40;;;;;;5017689;28;20044;-80
2021/12/11 09:02:19;;;;;;;15.10;3.53;;;19.80;95.80;;;;;;5017753;28;20033;-75
2021/12/11 09:05:00;;;;;;;11.65;3.10;;;19.80;96.20;;;;;;5018474;28;20060;-68
2021/12/11 09:07:34;;;;;;;9.52;2.70;;;19.70;96.70;;;;;;5018409;28;20025;-68
2021/12/11 09:10:23;;;;;;;9.40;2.13;;;19.70;96.90;;;;;;5019142;28;20057;-75
2021/12/11 09:12:58;;;;;;;9.48;2.13;;;19.60;96.40;;;;;;5017996;28;20064;-76
2021/12/11 09:15:45;;;;;;;9.68;1.83;;;19.70;96.60;;;;;;5017746;28;20147;-77
2021/12/11 09:18:25;;;;;;;7.63;2.05;;;19.60;96.50;;;;;;5017983;28;20025;-76
2021/12/11 09:21:01;;;;;;;7.80;1.73;;;19.50;96.70;;;;;;5017972;28;20619;-75
2021/12/11 09:23:42;;;;;;;9.85;3.25;;;19.40;97.10;;;;;;5018120;28;20057;-77
2021/12/11 09:26:13;;;;;;;9.10;3.20;;;19.40;97.30;;;;;;5016940;28;20018;-70
2021/12/11 09:28:50;;;;;;;14.00;4.32;;;19.40;97.70;;;;;;5017375;28;20021;-75
2021/12/11 09:31:32;;;;;;;9.63;1.98;;;19.40;97.90;;;;;;5017180;28;20030;-68
2021/12/11 09:34:28;;;;;;;7.88;2.42;;;19.30;98.10;;;;;;5018153;28;20025;-78
2021/12/11 09:36:59;;;;;;;13.02;2.85;;;19.30;98.50;;;;;;5016142;28;20412;-76
2021/12/11 09:39:33;;;;;;;14.45;2.25;;;19.30;98.70;;;;;;5016852;28;20037;-74
2021/12/11 09:42:00;;;;;;;12.63;2.22;;;19.30;98.90;;;;;;5018151;28;20026;-77
2021/12/11 09:44:50;;;;;;;13.35;3.08;;;19.30;99.10;;;;;;5016550;28;20037;-69
2021/12/11 09:47:28;;;;;;;11.45;2.97;;;19.20;99.40;;;;;;5010712;28;20203;-78
2021/12/11 09:50:03;;;;;;;10.10;2.10;;;19.20;99.90;;;;;;5017032;28;20502;-79
2021/12/11 09:52:32;;;;;;;10.77;1.90;;;19.20;99.90;;;;;;5017604;28;20040;-77
2021/12/11 09:55:08;;;;;;;12.65;3.25;;;19.10;99.90;;;;;;5017063;28;20053;-75
2021/12/11 09:57:39;;;;;;;9.30;1.98;;;19.00;99.90;;;;;;5017854;28;20025;-77
2021/12/11 10:00:15;;;;;;;9.63;2.67;;;19.00;99.90;;;;;;5018340;28;20030;-71
2021/12/11 10:02:43;;;;;;;12.57;2.28;;;19.00;99.90;;;;;;5017438;28;20028;-74
2021/12/11 10:05:28;;;;;;;16.67;3.28;;;18.90;99.90;;;;;;5018491;28;20025;-69
2021/12/11 10:08:26;;;;;;;11.57;2.42;;;18.90;99.90;;;;;;5017458;28;20105;-74
2021/12/11 10:11:11;;;;;;;17.92;3.10;;;18.80;99.90;;;;;;5016156;28;20169;-75
2021/12/11 10:14:11;;;;;;;11.40;2.20;;;18.70;99.90;;;;;;5010026;28;20034;-72
2021/12/11 10:16:42;;;;;;;11.05;2.58;;;18.60;99.90;;;;;;5008989;28;20045;-79
2021/12/11 10:19:13;;;;;;;12.52;2.53;;;18.60;99.90;;;;;;5019474;28;20147;-74
2021/12/11 10:21:47;;;;;;;14.52;3.17;;;18.50;99.90;;;;;;5019150;28;20025;-69
2021/12/11 10:24:18;;;;;;;12.00;2.65;;;18.50;99.90;;;;;;5019692;28;20028;-75
2021/12/11 10:26:47;;;;;;;9.88;2.10;;;18.50;99.90;;;;;;5017323;28;20211;-76
2021/12/11 10:29:16;;;;;;;14.70;2.72;;;18.40;99.90;;;;;;5017797;28;20040;-67
2021/12/11 10:31:58;;;;;;;14.93;2.88;;;18.30;99.90;;;;;;5016482;28;20059;-70
2021/12/11 10:34:30;;;;;;;10.57;3.10;;;18.30;99.90;;;;;;5017104;28;20100;-71
2021/12/11 10:37:13;;;;;;;11.50;1.70;;;18.30;99.90;;;;;;5017121;28;20509;-69
2021/12/11 10:39:45;;;;;;;15.13;3.95;;;18.30;99.90;;;;;;5016259;28;20968;-68
2021/12/11 10:42:13;;;;;;;10.77;2.60;;;18.20;99.90;;;;;;5017431;28;20162;-73
2021/12/11 10:44:45;;;;;;;11.13;2.22;;;18.20;99.90;;;;;;5016132;28;20104;-69
2021/12/11 10:47:22;;;;;;;9.70;2.20;;;18.10;99.90;;;;;;5016874;28;20022;-71
2021/12/11 10:49:51;;;;;;;11.27;1.90;;;18.00;99.90;;;;;;5014638;28;20048;-69
2021/12/11 10:52:37;;;;;;;9.15;3.25;;;18.00;99.90;;;;;;5017324;28;20025;-67
2021/12/11 10:55:09;;;;;;;10.20;1.20;;;18.00;99.90;;;;;;5016881;28;20029;-67
2021/12/11 10:57:37;;;;;;;8.52;1.77;;;18.00;99.90;;;;;;5016331;28;20355;-70
2021/12/11 11:00:14;;;;;;;9.30;1.20;;;18.00;99.90;;;;;;5015919;28;20029;-68
2021/12/11 11:02:42;;;;;;;9.40;1.92;;;18.00;99.90;;;;;;5015424;28;20026;-69
2021/12/11 11:05:15;;;;;;;6.22;1.45;;;18.10;99.90;;;;;;5015792;28;20036;-72
2021/12/11 11:07:44;;;;;;;4.15;1.40;;;18.10;99.90;;;;;;5015821;28;20022;-67
2021/12/11 11:10:21;;;;;;;8.73;2.65;;;18.00;99.90;;;;;;5015712;28;20028;-66
2021/12/11 11:12:49;;;;;;;8.90;1.48;;;17.90;99.90;;;;;;5017110;28;20022;-69
2021/12/11 11:15:21;;;;;;;9.30;2.20;;;17.90;99.90;;;;;;5016399;28;20036;-73
2021/12/11 11:17:49;;;;;;;6.60;2.45;;;17.80;99.90;;;;;;5017186;28;20159;-67
2021/12/11 11:20:24;;;;;;;14.00;2.70;;;17.80;99.90;;;;;;5016074;28;20029;-67
2021/12/11 11:22:51;;;;;;;10.77;1.80;;;17.80;99.90;;;;;;5016867;28;20018;-67
2021/12/11 11:25:25;;;;;;;8.80;2.00;;;17.70;99.90;;;;;;5016097;28;20025;-75
2021/12/11 11:27:57;;;;;;;9.77;2.03;;;17.80;99.90;;;;;;5016857;28;20018;-68
2021/12/11 11:30:31;;;;;;;13.35;2.33;;;17.70;99.90;;;;;;5016544;28;20026;-70
2021/12/11 11:32:58;;;;;;;8.40;2.22;;;17.70;99.90;;;;;;5015276;28;20385;-69
2021/12/11 11:35:31;;;;;;;12.70;2.33;;;17.70;99.90;;;;;;5017088;28;20033;-75
2021/12/11 11:38:01;;;;;;;7.47;1.52;;;17.70;99.90;;;;;;5015297;28;20026;-71
2021/12/11 11:40:34;;;;;;;11.48;2.45;;;17.70;99.90;;;;;;5016596;28;20018;-67
2021/12/11 11:43:04;;;;;;;11.65;2.75;;;17.70;99.90;;;;;;5014100;28;20390;-69
2021/12/11 11:45:35;;;;;;;11.45;1.85;;;17.70;99.90;;;;;;5016617;28;20044;-67
2021/12/11 11:48:03;;;;;;;10.95;2.60;;;17.70;99.90;;;;;;5014671;28;20167;-69
2021/12/11 11:50:36;;;;;;;12.27;2.22;;;17.70;99.90;;;;;;5016433;28;20057;-69
2021/12/11 11:53:05;;;;;;;8.18;1.83;;;17.70;99.90;;;;;;5014594;28;20075;-70
2021/12/11 11:55:40;;;;;;;12.38;2.58;;;17.60;99.90;;;;;;5016642;28;20022;-68
2021/12/11 11:58:08;;;;;;;13.38;3.33;;;17.60;99.90;;;;;;5014434;28;20105;-68
2021/12/11 12:00:52;;;;;;;14.60;3.10;;;17.50;99.90;;;;;;5017775;28;20026;-69
2021/12/11 12:03:22;;;;;;;10.13;2.65;;;17.50;99.90;;;;;;5018047;28;20101;-68
2021/12/11 12:05:53;;;;;;;11.77;2.50;;;17.50;99.90;;;;;;5019542;28;20040;-78
2021/12/11 12:08:20;;;;;;;7.00;2.20;;;17.50;99.90;;;;;;5017954;28;20420;-74
2021/12/11 12:10:50;;;;;;;10.43;2.50;;;17.40;99.90;;;;;;5019794;28;20060;-76
2021/12/11 12:13:22;;;;;;;9.65;2.35;;;17.40;99.90;;;;;;5018275;28;20040;-68
2021/12/11 12:15:54;;;;;;;15.77;2.60;;;17.30;99.90;;;;;;5019492;28;20319;-70
2021/12/11 12:18:22;;;;;;;8.83;2.43;;;17.30;99.90;;;;;;5017566;28;20029;-71
2021/12/11 12:20:50;;;;;;;14.85;2.35;;;17.30;99.90;;;;;;5019057;28;20021;-75
2021/12/11 12:23:20;;;;;;;12.90;1.65;;;17.30;99.90;;;;;;5018123;28;20021;-70
2021/12/11 12:25:49;;;;;;;11.48;2.25;;;17.30;99.90;;;;;;5019875;28;20060;-70
2021/12/11 12:28:19;;;;;;;10.75;2.13;;;17.30;99.90;;;;;;5018137;28;20030;-76
2021/12/11 12:30:52;;;;;;;8.40;1.55;;;17.20;99.90;;;;;;5019965;28;20045;-69
2021/12/11 12:33:20;;;;;;;7.97;1.98;;;17.10;99.90;;;;;;5018070;28;20033;-74
2021/12/11 12:35:48;;;;;;;10.52;2.25;;;17.10;99.90;;;;;;5019519;28;20025;-68
2021/12/11 12:38:20;;;;;;;9.85;1.70;;;17.20;99.90;;;;;;5017571;28;20024;-71
2021/12/11 12:41:09;;;;;;;8.27;2.05;;;17.10;99.90;;;;;;5019806;28;20022;-68
2021/12/11 12:46:18;;;;;;;10.18;2.17;;;17.00;99.90;;;;;;5017465;28;20437;-75
2021/12/11 12:48:46;;;;;;;11.63;2.30;;;17.10;99.90;;;;;;5019309;28;20462;-76
2021/12/11 12:51:14;;;;;;;9.77;2.15;;;17.00;99.90;;;;;;5016722;28;20116;-67
2021/12/11 12:53:44;;;;;;;14.63;2.28;;;17.00;99.90;;;;;;5019529;28;20156;-67
2021/12/11 12:56:39;;;;;;;9.10;1.88;;;17.00;99.90;;;;;;5017330;28;20478;-69
2021/12/11 12:59:11;;;;;;;11.10;2.35;;;17.00;99.90;;;;;;5018604;28;20047;-68
2021/12/11 13:01:43;;;;;;;6.32;1.48;;;17.10;99.90;;;;;;5019673;28;20048;-69
2021/12/11 13:04:14;;;;;;;10.60;2.03;;;17.10;99.90;;;;;;5017961;28;20104;-70
2021/12/11 13:06:46;;;;;;;12.45;2.30;;;17.10;99.90;;;;;;5020010;28;20026;-68
2021/12/11 13:09:28;;;;;;;11.13;2.10;;;17.10;99.90;;;;;;5017108;28;20390;-70
2021/12/11 13:12:01;;;;;;;8.02;1.42;;;17.10;99.90;;;;;;5018664;28;20403;-74
2021/12/11 13:14:30;;;;;;;8.43;2.00;;;17.20;99.90;;;;;;5017244;28;20017;-75
2021/12/11 13:17:03;;;;;;;10.20;2.63;;;17.20;99.90;;;;;;5018680;28;20060;-75
2021/12/11 13:19:42;;;;;;;12.13;2.28;;;17.20;99.90;;;;;;5017210;28;20477;-74
2021/12/11 13:22:17;;;;;;;10.23;2.35;;;17.30;99.90;;;;;;5018631;28;20076;-70
2021/12/11 13:24:49;;;;;;;7.55;2.03;;;17.30;99.90;;;;;;5018977;28;20838;-67
2021/12/11 13:27:20;;;;;;;9.65;2.38;;;17.30;99.90;;;;;;5017589;28;20068;-73
2021/12/11 13:29:52;;;;;;;10.90;1.60;;;17.30;99.90;;;;;;5000754;28;20478;-74
2021/12/11 13:32:24;;;;;;;;;;;17.30;99.90;;;;;;5016977;28;20037;-72
2021/12/11 13:34:56;;;;;;;7.82;2.17;;;17.30;99.90;;;;;;5018786;28;19908;-70